createdAt,value
2018-09-22T00:00:44.226Z,98253.52
2018-09-22T00:01:46.834Z,98243.81
2018-09-22T00:02:49.457Z,98240.30
2018-09-22T00:03:52.077Z,98232.77
2018-09-22T00:04:54.717Z,98225.52
2018-09-22T00:05:57.362Z,98230.59
2018-09-22T00:06:59.996Z,98224.70
2018-09-22T00:08:02.678Z,98223.37
2018-09-22T00:09:07.689Z,98221.73
2018-09-22T00:10:10.485Z,98214.47
2018-09-22T00:11:13.139Z,98209.92
2018-09-22T00:12:15.753Z,98200.23
2018-09-22T00:13:18.365Z,98213.12
2018-09-22T00:14:21.028Z,98208.80
2018-09-22T00:15:23.628Z,98205.30
2018-09-22T00:16:26.228Z,98211.19
2018-09-22T00:17:28.941Z,98210.69
2018-09-22T00:18:31.545Z,98216.06
2018-09-22T00:19:34.368Z,98211.19
2018-09-22T00:20:36.989Z,98208.50
2018-09-22T00:21:39.602Z,98203.13
2018-09-22T00:22:42.232Z,98199.64
2018-09-22T00:23:44.822Z,98200.98
2018-09-22T00:24:47.427Z,98193.94
2018-09-22T00:25:50.041Z,98186.20
2018-09-22T00:26:52.720Z,98184.53
2018-09-22T00:27:55.592Z,98182.38
2018-09-22T00:28:58.205Z,98177.01
2018-09-22T00:30:00.925Z,98170.80
2018-09-22T00:31:03.833Z,98174.83
2018-09-22T00:32:06.469Z,98177.52
2018-09-22T00:33:09.089Z,98180.20
2018-09-22T00:34:11.705Z,98176.17
2018-09-22T00:35:14.429Z,98177.22
2018-09-22T00:36:17.045Z,98174.03
2018-09-22T00:37:19.661Z,98170.50
2018-09-22T00:38:22.274Z,98166.47
2018-09-22T00:39:24.889Z,98173.73
2018-09-22T00:40:27.813Z,98162.15
2018-09-22T00:41:30.421Z,98164.84
2018-09-22T00:42:33.257Z,98162.15
2018-09-22T00:43:35.958Z,98158.12
2018-09-22T00:44:38.549Z,98158.12
2018-09-22T00:45:41.256Z,98155.97
2018-09-22T00:46:43.869Z,98161.56
2018-09-22T00:47:46.469Z,98152.16
2018-09-22T00:48:49.102Z,98146.78
2018-09-22T00:49:51.728Z,98134.69
2018-09-22T00:50:54.448Z,98136.58
2018-09-22T00:52:08.265Z,98133.34
2018-09-22T00:53:10.888Z,98124.48
2018-09-22T00:54:13.521Z,98130.15
2018-09-22T00:55:16.141Z,98126.34
2018-09-22T00:56:19.025Z,98129.02
2018-09-22T00:57:21.641Z,98113.44
2018-09-22T00:58:24.241Z,98118.52
2018-09-22T00:59:26.849Z,98119.33
2018-09-22T01:00:29.537Z,98111.51
2018-09-22T01:01:32.421Z,98112.61
2018-09-22T01:02:35.037Z,98108.28
2018-09-22T01:03:37.655Z,98101.27
2018-09-22T01:04:40.257Z,98104.25
2018-09-22T01:05:42.869Z,98102.91
2018-09-22T01:06:45.589Z,98102.91
2018-09-22T01:07:48.173Z,98099.42
2018-09-22T01:08:50.799Z,98093.75
2018-09-22T01:09:53.388Z,98091.87
2018-09-22T01:10:56.002Z,98089.18
2018-09-22T01:11:58.705Z,98092.12
2018-09-22T01:13:01.341Z,98090.77
2018-09-22T01:14:03.965Z,98090.23
2018-09-22T01:15:06.590Z,98087.79
2018-09-22T01:16:09.381Z,98089.94
2018-09-22T01:17:12.101Z,98092.33
2018-09-22T01:18:14.717Z,98092.33
2018-09-22T01:19:17.317Z,98096.36
2018-09-22T01:20:19.929Z,98093.97
2018-09-22T01:21:22.560Z,98095.02
2018-09-22T01:22:25.289Z,98092.88
2018-09-22T01:23:27.892Z,98100.94
2018-09-22T01:24:30.480Z,98098.75
2018-09-22T01:25:33.093Z,98101.15
2018-09-22T01:26:35.693Z,98100.09
2018-09-22T01:27:38.389Z,98100.09
2018-09-22T01:28:40.989Z,98103.03
2018-09-22T01:29:43.633Z,98099.80
2018-09-22T01:30:46.282Z,98109.75
2018-09-22T01:31:48.925Z,98107.58
2018-09-22T01:32:51.699Z,98102.73
2018-09-22T01:33:54.293Z,98100.56
2018-09-22T01:34:56.897Z,98104.88
2018-09-22T01:35:59.502Z,98106.77
2018-09-22T01:37:02.105Z,98105.94
2018-09-22T01:38:04.825Z,98104.30
2018-09-22T01:39:08.465Z,98098.13
2018-09-22T01:40:11.081Z,98103.50
2018-09-22T01:41:13.705Z,98101.61
2018-09-22T01:42:16.365Z,98103.80
2018-09-22T01:43:19.087Z,98094.09
2018-09-22T01:44:21.693Z,98098.13
2018-09-22T01:45:24.377Z,98102.95
2018-09-22T01:46:26.972Z,98098.92
2018-09-22T01:47:29.580Z,98096.48
2018-09-22T01:48:32.273Z,98099.47
2018-09-22T01:49:34.881Z,98096.48
2018-09-22T01:50:37.493Z,98101.32
2018-09-22T01:51:40.097Z,98092.45
2018-09-22T01:52:42.705Z,98103.50
2018-09-22T01:53:45.321Z,98098.34
2018-09-22T01:54:47.945Z,98104.55
2018-09-22T01:55:50.561Z,98093.80
2018-09-22T01:56:53.173Z,98088.94
2018-09-22T01:58:10.333Z,98095.14
2018-09-22T01:59:12.938Z,98096.23
2018-09-22T02:00:15.585Z,98081.17
2018-09-22T02:01:18.349Z,98080.12
2018-09-22T02:02:20.968Z,98069.08
2018-09-22T02:03:23.569Z,98067.73
2018-09-22T02:04:26.169Z,98061.86
2018-09-22T02:05:28.785Z,98058.33
2018-09-22T02:06:31.389Z,98058.63
2018-09-22T02:07:34.021Z,98062.36
2018-09-22T02:08:36.662Z,98060.51
2018-09-22T02:09:39.273Z,98048.42
2018-09-22T02:10:42.008Z,98051.41
2018-09-22T02:11:44.525Z,98055.72
2018-09-22T02:12:47.142Z,98057.87
2018-09-22T02:13:49.785Z,98057.36
2018-09-22T02:14:52.413Z,98058.16
2018-09-22T02:15:55.017Z,98067.86
2018-09-22T02:16:57.621Z,98059.29
2018-09-22T02:18:00.249Z,98058.23
2018-09-22T02:19:02.841Z,98061.73
2018-09-22T02:20:05.534Z,98059.33
2018-09-22T02:21:08.173Z,98052.61
2018-09-22T02:22:10.792Z,98053.16
2018-09-22T02:23:13.421Z,98055.30
2018-09-22T02:24:16.021Z,98052.61
2018-09-22T02:25:18.641Z,98043.21
2018-09-22T02:26:21.274Z,98043.21
2018-09-22T02:27:23.911Z,98042.70
2018-09-22T02:28:26.533Z,98036.49
2018-09-22T02:29:29.175Z,98041.87
2018-09-22T02:30:31.770Z,98032.46
2018-09-22T02:31:34.405Z,98035.14
2018-09-22T02:32:37.019Z,98027.92
2018-09-22T02:33:39.625Z,98025.45
2018-09-22T02:34:42.302Z,98026.28
2018-09-22T02:35:44.945Z,98020.08
2018-09-22T02:36:47.550Z,98021.72
2018-09-22T02:37:50.157Z,98020.63
2018-09-22T02:38:52.857Z,98005.02
2018-09-22T02:39:55.487Z,98011.73
2018-09-22T02:40:58.114Z,97996.14
2018-09-22T02:42:00.722Z,98000.17
2018-09-22T02:43:03.353Z,97998.00
2018-09-22T02:44:05.985Z,97993.17
2018-09-22T02:45:08.626Z,97985.33
2018-09-22T02:46:11.235Z,97985.33
2018-09-22T02:47:13.865Z,97983.98
2018-09-22T02:48:16.461Z,97972.44
2018-09-22T02:49:19.066Z,97984.53
2018-09-22T02:50:21.686Z,97987.21
2018-09-22T02:51:24.309Z,97978.03
2018-09-22T02:52:26.937Z,97980.71
2018-09-22T02:53:29.542Z,97977.23
2018-09-22T02:54:32.158Z,97964.30
2018-09-22T02:55:34.767Z,97964.02
2018-09-22T02:56:37.385Z,97964.02
2018-09-22T02:57:40.013Z,97968.05
2018-09-22T02:58:42.618Z,97974.76
2018-09-22T02:59:45.233Z,97970.44
2018-09-22T03:00:48.144Z,97964.77
2018-09-22T03:01:50.785Z,97962.92
2018-09-22T03:02:53.633Z,97959.41
2018-09-22T03:03:56.229Z,97970.44
2018-09-22T03:04:58.828Z,97962.59
2018-09-22T03:06:01.526Z,97962.09
2018-09-22T03:07:04.203Z,97967.97
2018-09-22T03:08:06.810Z,97956.42
2018-09-22T03:09:10.557Z,97952.91
2018-09-22T03:10:13.179Z,97937.84
2018-09-22T03:11:15.810Z,97953.73
2018-09-22T03:12:18.448Z,97945.09
2018-09-22T03:13:21.049Z,97940.23
2018-09-22T03:14:23.657Z,97947.78
2018-09-22T03:15:26.308Z,97944.80
2018-09-22T03:16:28.917Z,97949.05
2018-09-22T03:17:31.541Z,97941.53
2018-09-22T03:18:34.157Z,97944.22
2018-09-22T03:19:36.777Z,97940.70
2018-09-22T03:20:39.377Z,97938.56
2018-09-22T03:21:42.013Z,97928.87
2018-09-22T03:22:44.637Z,97917.83
2018-09-22T03:23:47.249Z,97922.66
2018-09-22T03:24:49.857Z,97923.49
2018-09-22T03:25:52.475Z,97910.06
2018-09-22T03:26:55.077Z,97915.95
2018-09-22T03:27:57.721Z,97907.59
2018-09-22T03:29:00.317Z,97901.17
2018-09-22T03:30:03.017Z,97901.42
2018-09-22T03:31:05.774Z,97894.17
2018-09-22T03:32:08.397Z,97897.40
2018-09-22T03:33:11.009Z,97905.97
2018-09-22T03:34:13.625Z,97897.61
2018-09-22T03:35:16.236Z,97899.80
2018-09-22T03:36:18.845Z,97896.81
2018-09-22T03:37:21.449Z,97895.47
2018-09-22T03:38:24.049Z,97891.95
2018-09-22T03:39:26.685Z,97897.87
2018-09-22T03:40:29.312Z,97893.84
2018-09-22T03:41:31.927Z,97890.86
2018-09-22T03:42:34.545Z,97885.49
2018-09-22T03:43:37.151Z,97873.12
2018-09-22T03:44:39.757Z,97878.48
2018-09-22T03:45:42.389Z,97878.48
2018-09-22T03:46:44.997Z,97884.91
2018-09-22T03:47:47.594Z,97877.36
2018-09-22T03:48:50.217Z,97871.19
2018-09-22T03:49:52.810Z,97873.87
2018-09-22T03:50:55.425Z,97871.19
2018-09-22T03:51:58.029Z,97862.84
2018-09-22T03:53:00.641Z,97858.81
2018-09-22T03:54:03.261Z,97863.36
2018-09-22T03:55:05.909Z,97858.52
2018-09-22T03:56:08.509Z,97854.50
2018-09-22T03:57:11.145Z,97853.67
2018-09-22T03:58:13.765Z,97852.03
2018-09-22T03:59:16.401Z,97848.55
2018-09-22T04:00:19.001Z,97852.86
2018-09-22T04:01:21.613Z,97847.20
2018-09-22T04:02:24.234Z,97836.14
2018-09-22T04:03:26.844Z,97846.38
2018-09-22T04:04:29.656Z,97847.72
2018-09-22T04:05:32.257Z,97850.91
2018-09-22T04:06:34.863Z,97851.96
2018-09-22T04:07:37.481Z,97847.94
2018-09-22T04:08:40.085Z,97843.08
2018-09-22T04:09:42.729Z,97855.98
2018-09-22T04:10:45.348Z,97854.65
2018-09-22T04:11:47.945Z,97860.53
2018-09-22T04:12:50.557Z,97855.16
2018-09-22T04:13:53.161Z,97855.98
2018-09-22T04:14:55.777Z,97851.13
2018-09-22T04:15:58.377Z,97857.33
2018-09-22T04:17:00.998Z,97851.13
2018-09-22T04:18:03.597Z,97850.30
2018-09-22T04:19:06.253Z,97851.96
2018-09-22T04:20:08.865Z,97847.61
2018-09-22T04:21:11.493Z,97849.79
2018-09-22T04:22:14.121Z,97843.59
2018-09-22T04:23:16.718Z,97851.64
2018-09-22T04:24:20.040Z,97836.36
2018-09-22T04:25:22.705Z,97846.27
2018-09-22T04:26:25.337Z,97839.88
2018-09-22T04:27:27.934Z,97845.25
2018-09-22T04:28:30.565Z,97836.87
2018-09-22T04:29:33.173Z,97839.88
2018-09-22T04:30:35.777Z,97835.85
2018-09-22T04:31:38.386Z,97841.73
2018-09-22T04:32:41.005Z,97839.56
2018-09-22T04:33:43.625Z,97837.70
2018-09-22T04:34:46.223Z,97834.19
2018-09-22T04:35:49.002Z,97834.51
2018-09-22T04:36:51.613Z,97830.98
2018-09-22T04:37:54.217Z,97833.17
2018-09-22T04:38:56.821Z,97825.62
2018-09-22T04:39:59.433Z,97824.79
2018-09-22T04:41:02.029Z,97818.08
2018-09-22T04:42:04.681Z,97818.91
2018-09-22T04:43:07.281Z,97816.73
2018-09-22T04:44:10.031Z,97819.42
2018-09-22T04:45:12.629Z,97813.25
2018-09-22T04:46:15.237Z,97820.77
2018-09-22T04:47:17.837Z,97824.79
2018-09-22T04:48:20.438Z,97820.77
2018-09-22T04:49:23.044Z,97822.11
2018-09-22T04:50:25.666Z,97819.67
2018-09-22T04:51:28.475Z,97814.05
2018-09-22T04:53:27.569Z,97810.56
2018-09-22T04:54:30.177Z,97806.25
2018-09-22T04:55:32.775Z,97812.42
2018-09-22T04:56:35.401Z,97807.05
2018-09-22T04:57:38.013Z,97801.39
2018-09-22T04:58:40.631Z,97801.96
2018-09-22T04:59:43.265Z,97804.07
2018-09-22T05:00:45.928Z,97796.55
2018-09-22T05:01:48.533Z,97806.25
2018-09-22T05:02:51.142Z,97810.78
2018-09-22T05:03:53.925Z,97802.73
2018-09-22T05:04:56.530Z,97804.07
2018-09-22T05:05:59.129Z,97800.33
2018-09-22T05:07:02.004Z,97805.41
2018-09-22T05:08:04.853Z,97800.58
2018-09-22T05:09:09.801Z,97803.56
2018-09-22T05:10:12.405Z,97803.02
2018-09-22T05:11:15.009Z,97798.70
2018-09-22T05:12:17.645Z,97793.33
2018-09-22T05:13:20.253Z,97799.53
2018-09-22T05:14:22.869Z,97796.02
2018-09-22T05:15:25.486Z,97796.02
2018-09-22T05:16:28.096Z,97797.90
2018-09-22T05:17:30.749Z,97793.88
2018-09-22T05:18:33.405Z,97786.87
2018-09-22T05:19:36.005Z,97793.88
2018-09-22T05:20:38.608Z,97784.98
2018-09-22T05:21:41.217Z,97785.81
2018-09-22T05:22:43.825Z,97790.89
2018-09-22T05:23:46.437Z,97789.55
2018-09-22T05:24:49.128Z,97786.33
2018-09-22T05:25:51.733Z,97792.23
2018-09-22T05:26:54.397Z,97791.41
2018-09-22T05:27:57.015Z,97785.53
2018-09-22T05:28:59.653Z,97792.53
2018-09-22T05:30:02.305Z,97783.35
2018-09-22T05:31:05.233Z,97788.21
2018-09-22T05:32:07.901Z,97786.04
2018-09-22T05:33:10.498Z,97784.70
2018-09-22T05:34:13.101Z,97787.38
2018-09-22T05:35:15.698Z,97781.50
2018-09-22T05:36:18.300Z,97783.35
2018-09-22T05:37:20.931Z,97784.70
2018-09-22T05:38:23.549Z,97782.02
2018-09-22T05:39:26.165Z,97779.62
2018-09-22T05:40:28.765Z,97780.16
2018-09-22T05:41:31.388Z,97780.67
2018-09-22T05:42:34.018Z,97782.02
2018-09-22T05:43:36.625Z,97780.95
2018-09-22T05:44:39.225Z,97779.62
2018-09-22T05:45:41.825Z,97776.64
2018-09-22T05:46:44.441Z,97767.24
2018-09-22T05:47:47.037Z,97768.59
2018-09-22T05:48:49.653Z,97765.91
2018-09-22T05:49:52.297Z,97767.78
2018-09-22T05:50:54.933Z,97767.24
2018-09-22T05:51:57.545Z,97768.08
2018-09-22T05:53:00.181Z,97768.59
2018-09-22T05:54:02.835Z,97770.22
2018-09-22T05:55:05.513Z,97774.25
2018-09-22T05:56:08.121Z,97766.73
2018-09-22T05:57:10.738Z,97768.87
2018-09-22T05:58:13.441Z,97770.22
2018-09-22T05:59:15.993Z,97776.13
2018-09-22T06:00:18.594Z,97781.79
2018-09-22T06:01:21.199Z,97779.62
2018-09-22T06:02:23.828Z,97783.13
2018-09-22T06:03:26.527Z,97780.95
2018-09-22T06:04:29.117Z,97783.13
2018-09-22T06:05:31.741Z,97790.36
2018-09-22T06:06:34.410Z,97789.02
2018-09-22T06:07:37.051Z,97786.33
2018-09-22T06:08:39.736Z,97789.84
2018-09-22T06:09:42.410Z,97793.04
2018-09-22T06:10:45.028Z,97791.70
2018-09-22T06:11:47.647Z,97792.23
2018-09-22T06:12:50.245Z,97789.02
2018-09-22T06:13:52.907Z,97796.55
2018-09-22T06:14:55.519Z,97795.22
2018-09-22T06:15:58.117Z,97797.61
2018-09-22T06:17:00.713Z,97792.75
2018-09-22T06:18:03.341Z,97797.36
2018-09-22T06:19:06.173Z,97794.67
2018-09-22T06:20:08.830Z,97791.48
2018-09-22T06:21:11.446Z,97793.62
2018-09-22T06:22:14.042Z,97803.84
2018-09-22T06:23:16.767Z,97801.96
2018-09-22T06:24:19.315Z,97799.28
2018-09-22T06:25:21.964Z,97798.77
2018-09-22T06:26:24.575Z,97807.14
2018-09-22T06:27:27.193Z,97804.97
2018-09-22T06:28:29.800Z,97803.41
2018-09-22T06:29:32.405Z,97803.92
2018-09-22T06:30:35.045Z,97806.09
2018-09-22T06:31:37.661Z,97808.27
2018-09-22T06:32:40.277Z,97804.75
2018-09-22T06:33:42.882Z,97803.41
2018-09-22T06:34:45.493Z,97802.06
2018-09-22T06:35:48.132Z,97798.87
2018-09-22T06:36:50.757Z,97798.87
2018-09-22T06:37:53.343Z,97796.98
2018-09-22T06:38:55.970Z,97794.84
2018-09-22T06:39:58.752Z,97799.16
2018-09-22T06:41:01.353Z,97803.98
2018-09-22T06:42:03.957Z,97805.33
2018-09-22T06:43:06.753Z,97807.50
2018-09-22T06:44:09.337Z,97804.53
2018-09-22T06:45:11.973Z,97802.36
2018-09-22T06:46:14.657Z,97802.89
2018-09-22T06:47:17.241Z,97803.19
2018-09-22T06:48:19.918Z,97803.70
2018-09-22T06:49:22.543Z,97801.02
2018-09-22T06:50:25.196Z,97808.55
2018-09-22T06:51:27.797Z,97805.87
2018-09-22T06:52:30.417Z,97805.04
2018-09-22T06:53:33.032Z,97811.24
2018-09-22T06:54:35.661Z,97814.98
2018-09-22T06:55:38.269Z,97821.98
2018-09-22T06:56:40.873Z,97824.38
2018-09-22T06:57:43.477Z,97817.95
2018-09-22T06:58:46.083Z,97817.12
2018-09-22T06:59:48.706Z,97815.27
2018-09-22T07:00:51.297Z,97819.30
2018-09-22T07:01:53.921Z,97826.02
2018-09-22T07:02:56.521Z,97824.95
2018-09-22T07:03:59.138Z,97830.04
2018-09-22T07:05:01.735Z,97831.09
2018-09-22T07:06:04.357Z,97823.03
2018-09-22T07:07:06.975Z,97824.67
2018-09-22T07:08:09.590Z,97830.04
2018-09-22T07:09:12.202Z,97823.03
2018-09-22T07:10:14.819Z,97831.38
2018-09-22T07:11:17.655Z,97830.33
2018-09-22T07:12:20.277Z,97832.72
2018-09-22T07:13:22.901Z,97834.87
2018-09-22T07:14:25.509Z,97836.21
2018-09-22T07:15:28.129Z,97835.92
2018-09-22T07:16:30.725Z,97836.47
2018-09-22T07:17:33.323Z,97838.61
2018-09-22T07:18:35.919Z,97839.44
2018-09-22T07:19:38.621Z,97839.44
2018-09-22T07:20:45.698Z,97833.23
2018-09-22T07:21:53.933Z,97833.23
2018-09-22T07:23:02.225Z,97845.86
2018-09-22T07:24:04.869Z,97848.55
2018-09-22T07:25:07.521Z,97846.66
2018-09-22T07:26:10.121Z,97849.06
2018-09-22T07:27:12.714Z,97858.97
2018-09-22T07:28:15.337Z,97856.28
2018-09-22T07:29:18.000Z,97862.48
2018-09-22T07:30:20.637Z,97858.45
2018-09-22T07:31:23.249Z,97856.28
2018-09-22T07:32:25.877Z,97861.98
2018-09-22T07:33:28.487Z,97866.00
2018-09-22T07:34:31.097Z,97865.46
2018-09-22T07:35:33.693Z,97866.30
2018-09-22T07:36:36.293Z,97869.27
2018-09-22T07:37:38.897Z,97871.95
2018-09-22T07:38:41.503Z,97865.24
2018-09-22T07:39:44.107Z,97869.56
2018-09-22T07:40:46.840Z,97872.53
2018-09-22T07:41:49.449Z,97885.67
2018-09-22T07:42:52.045Z,97879.47
2018-09-22T07:43:54.658Z,97881.94
2018-09-22T07:44:57.258Z,97879.47
2018-09-22T07:45:59.877Z,97887.52
2018-09-22T07:47:02.477Z,97887.02
2018-09-22T07:48:05.302Z,97902.08
2018-09-22T07:49:07.929Z,97891.05
2018-09-22T07:50:10.617Z,97899.09
2018-09-22T07:51:13.213Z,97902.30
2018-09-22T07:52:15.821Z,97904.98
2018-09-22T07:53:18.449Z,97903.64
2018-09-22T07:54:21.193Z,97910.35
2018-09-22T07:55:23.793Z,97909.30
2018-09-22T07:56:26.405Z,97911.69
2018-09-22T07:57:29.269Z,97910.89
2018-09-22T07:58:31.896Z,97914.92
2018-09-22T07:59:34.525Z,97917.06
2018-09-22T08:00:37.141Z,97916.27
2018-09-22T08:01:39.817Z,97927.01
2018-09-22T08:02:42.405Z,97921.63
2018-09-22T08:03:45.012Z,97938.55
2018-09-22T08:04:47.618Z,97941.48
2018-09-22T08:05:50.217Z,97945.80
2018-09-22T08:06:52.842Z,97945.27
2018-09-22T08:07:55.437Z,97950.34
2018-09-22T08:08:58.042Z,97945.80
2018-09-22T08:10:00.670Z,97946.03
2018-09-22T08:11:03.301Z,97952.23
2018-09-22T08:12:05.949Z,97943.34
2018-09-22T08:13:08.860Z,97958.94
2018-09-22T08:14:11.481Z,97968.05
2018-09-22T08:15:14.121Z,97961.34
2018-09-22T08:16:16.741Z,97965.36
2018-09-22T08:17:19.342Z,97974.77
2018-09-22T08:18:21.949Z,97975.48
2018-09-22T08:19:24.657Z,97988.41
2018-09-22T08:20:27.273Z,97979.52
2018-09-22T08:21:29.875Z,97994.58
2018-09-22T08:22:32.493Z,97994.80
2018-09-22T08:23:35.090Z,97995.84
2018-09-22T08:24:37.689Z,98002.85
2018-09-22T08:25:40.309Z,97999.04
2018-09-22T08:26:42.993Z,98003.06
2018-09-22T08:27:45.586Z,98002.27
2018-09-22T08:28:48.193Z,98006.00
2018-09-22T08:29:50.813Z,98009.48
2018-09-22T08:30:53.413Z,98010.54
2018-09-22T08:31:56.093Z,98015.11
2018-09-22T08:32:58.733Z,98017.50
2018-09-22T08:34:01.363Z,98016.16
2018-09-22T08:35:04.109Z,98032.78
2018-09-22T08:36:06.757Z,98023.38
2018-09-22T08:37:09.520Z,98027.41
2018-09-22T08:38:12.036Z,98031.97
2018-09-22T08:39:14.649Z,98037.56
2018-09-22T08:40:17.261Z,98032.73
2018-09-22T08:41:19.873Z,98042.93
2018-09-22T08:42:22.492Z,98045.62
2018-09-22T08:43:25.117Z,98042.64
2018-09-22T08:44:27.973Z,98041.59
2018-09-22T08:45:30.580Z,98041.30
2018-09-22T08:46:33.209Z,98044.81
2018-09-22T08:47:36.413Z,98046.95
2018-09-22T08:48:39.049Z,98050.69
2018-09-22T08:49:41.740Z,98056.06
2018-09-22T08:50:44.337Z,98057.11
2018-09-22T08:51:46.954Z,98056.31
2018-09-22T08:52:49.545Z,98063.53
2018-09-22T08:53:52.154Z,98064.36
2018-09-22T08:54:54.753Z,98061.89
2018-09-22T08:55:57.358Z,98079.05
2018-09-22T08:56:59.969Z,98071.29
2018-09-22T08:58:02.601Z,98076.91
2018-09-22T08:59:05.251Z,98083.62
2018-09-22T09:00:07.945Z,98101.28
2018-09-22T09:01:10.572Z,98083.83
2018-09-22T09:02:13.189Z,98093.23
2018-09-22T09:03:15.797Z,98094.28
2018-09-22T09:04:18.401Z,98096.96
2018-09-22T09:05:21.010Z,98092.13
2018-09-22T09:06:23.653Z,98093.17
2018-09-22T09:07:26.257Z,98100.40
2018-09-22T09:08:28.877Z,98100.10
2018-09-22T09:09:31.469Z,98103.84
2018-09-22T09:10:34.077Z,98108.08
2018-09-22T09:11:36.710Z,98111.59
2018-09-22T09:12:39.317Z,98122.33
2018-09-22T09:13:42.066Z,98119.65
2018-09-22T09:14:44.705Z,98111.30
2018-09-22T09:15:47.451Z,98114.28
2018-09-22T09:16:50.063Z,98118.52
2018-09-22T09:17:52.655Z,98126.36
2018-09-22T09:18:55.261Z,98123.38
2018-09-22T09:19:57.880Z,98128.20
2018-09-22T09:21:00.497Z,98128.20
2018-09-22T09:22:03.117Z,98129.25
2018-09-22T09:23:05.785Z,98145.36
2018-09-22T09:24:08.390Z,98136.80
2018-09-22T09:25:11.005Z,98141.87
2018-09-22T09:26:13.609Z,98132.48
2018-09-22T09:27:16.221Z,98137.55
2018-09-22T09:28:18.841Z,98143.97
2018-09-22T09:29:21.493Z,98131.05
2018-09-22T09:30:24.105Z,98147.99
2018-09-22T09:31:26.722Z,98136.13
2018-09-22T09:32:29.333Z,98152.02
2018-09-22T09:33:31.949Z,98146.36
2018-09-22T09:34:34.617Z,98140.16
2018-09-22T09:35:37.272Z,98154.91
2018-09-22T09:36:39.909Z,98152.77
2018-09-22T09:37:42.521Z,98145.81
2018-09-22T09:38:45.141Z,98151.42
2018-09-22T09:39:47.752Z,98162.17
2018-09-22T09:40:50.363Z,98166.48
2018-09-22T09:41:52.977Z,98170.22
2018-09-22T09:42:55.609Z,98164.55
2018-09-22T09:43:58.233Z,98168.05
2018-09-22T09:45:00.838Z,98169.92
2018-09-22T09:46:03.457Z,98168.58
2018-09-22T09:47:06.125Z,98171.77
2018-09-22T09:48:08.737Z,98184.39
2018-09-22T09:49:11.345Z,98186.53
2018-09-22T09:50:13.969Z,98191.91
2018-09-22T09:51:16.782Z,98183.05
2018-09-22T09:52:19.413Z,98184.69
2018-09-22T09:53:22.021Z,98191.10
2018-09-22T09:54:24.923Z,98188.42
2018-09-22T09:55:27.542Z,98184.69
2018-09-22T09:56:30.173Z,98189.22
2018-09-22T09:57:32.785Z,98196.98
2018-09-22T09:58:35.401Z,98203.18
2018-09-22T09:59:38.013Z,98199.16
2018-09-22T10:00:45.543Z,98204.22
2018-09-22T10:01:48.170Z,98203.69
2018-09-22T10:02:50.785Z,98204.52
2018-09-22T10:03:53.382Z,98216.60
2018-09-22T10:04:55.985Z,98209.59
2018-09-22T10:05:58.606Z,98213.92
2018-09-22T10:07:01.197Z,98209.89
2018-09-22T10:08:03.865Z,98214.22
2018-09-22T10:09:07.921Z,98211.53
2018-09-22T10:10:10.525Z,98202.14
2018-09-22T10:11:13.118Z,98216.36
2018-09-22T10:12:15.725Z,98204.82
2018-09-22T10:13:18.365Z,98214.22
2018-09-22T10:14:20.997Z,98222.56
2018-09-22T10:15:23.601Z,98222.56
2018-09-22T10:16:26.195Z,98229.78
2018-09-22T10:17:28.962Z,98234.34
2018-09-22T10:18:31.615Z,98232.17
2018-09-22T10:19:34.229Z,98224.41
2018-09-22T10:20:36.824Z,98227.94
2018-09-22T10:21:39.453Z,98231.66
2018-09-22T10:22:42.061Z,98233.30
2018-09-22T10:23:44.659Z,98237.62
2018-09-22T10:24:47.255Z,98235.98
2018-09-22T10:25:49.857Z,98242.41
2018-09-22T10:26:52.486Z,98240.52
2018-09-22T10:27:55.104Z,98247.53
2018-09-22T10:28:57.802Z,98233.00
2018-09-22T10:30:00.386Z,98242.70
2018-09-22T10:31:03.009Z,98249.41
2018-09-22T10:32:05.657Z,98245.38
2018-09-22T10:33:08.257Z,98231.36
2018-09-22T10:34:10.869Z,98244.25
2018-09-22T10:35:13.494Z,98251.80
2018-09-22T10:36:16.100Z,98259.85
2018-09-22T10:37:18.700Z,98249.63
2018-09-22T10:38:21.324Z,98235.15
2018-09-22T10:39:24.013Z,98247.23
2018-09-22T10:40:26.609Z,98250.01
2018-09-22T10:41:29.238Z,98255.43
2018-09-22T10:42:31.857Z,98244.33
2018-09-22T10:43:34.460Z,98244.47
2018-09-22T10:44:37.056Z,98251.62
2018-09-22T10:45:39.649Z,98245.05
2018-09-22T10:46:42.265Z,98250.33
2018-09-22T10:47:44.898Z,98246.95
2018-09-22T10:48:47.734Z,98245.98
2018-09-22T10:49:50.325Z,98244.70
2018-09-22T10:50:52.932Z,98247.47
2018-09-22T10:51:55.552Z,98233.80
2018-09-22T10:52:58.216Z,98242.23
2018-09-22T10:54:00.809Z,98248.41
2018-09-22T10:55:03.545Z,98245.52
2018-09-22T10:56:06.185Z,98263.56
2018-09-22T10:57:08.805Z,98248.79
2018-09-22T10:58:11.409Z,98255.00
2018-09-22T10:59:14.032Z,98253.70
2018-09-22T11:00:16.637Z,98256.39
2018-09-22T11:01:19.241Z,98261.02
2018-09-22T11:02:21.845Z,98265.05
2018-09-22T11:03:24.511Z,98255.13
2018-09-22T11:04:27.092Z,98290.87
2018-09-22T11:05:29.703Z,98263.49
2018-09-22T11:06:32.433Z,98265.88
2018-09-22T11:07:35.062Z,98277.73
2018-09-22T11:08:37.761Z,98273.70
2018-09-22T11:09:40.361Z,98284.45
2018-09-22T11:10:43.048Z,98280.95
2018-09-22T11:11:45.665Z,98293.55
2018-09-22T11:12:48.271Z,98300.27
2018-09-22T11:13:50.864Z,98299.98
2018-09-22T11:14:53.497Z,98289.23
2018-09-22T11:15:56.151Z,98293.80
2018-09-22T11:16:58.748Z,98303.41
2018-09-22T11:18:01.425Z,98308.49
2018-09-22T11:19:04.128Z,98311.17
2018-09-22T11:20:07.007Z,98320.58
2018-09-22T11:21:09.629Z,98321.33
2018-09-22T11:22:12.249Z,98313.56
2018-09-22T11:23:14.845Z,98315.36
2018-09-22T11:24:17.477Z,98321.03
2018-09-22T11:25:20.372Z,98315.87
2018-09-22T11:26:23.009Z,98312.38
2018-09-22T11:27:25.671Z,98320.66
2018-09-22T11:28:28.307Z,98334.08
2018-09-22T11:29:30.909Z,98328.41
2018-09-22T11:30:33.509Z,98336.17
2018-09-22T11:31:36.129Z,98334.03
2018-09-22T11:32:38.786Z,98339.91
2018-09-22T11:33:41.405Z,98333.43
2018-09-22T11:34:44.033Z,98342.54
2018-09-22T11:35:46.765Z,98348.72
2018-09-22T11:36:49.361Z,98349.25
2018-09-22T11:37:52.243Z,98351.64
2018-09-22T11:38:54.889Z,98353.73
2018-09-22T11:39:57.521Z,98355.88
2018-09-22T11:41:00.117Z,98362.59
2018-09-22T11:42:02.737Z,98368.50
2018-09-22T11:43:05.379Z,98354.78
2018-09-22T11:44:08.189Z,98362.84
2018-09-22T11:45:10.799Z,98366.03
2018-09-22T11:46:13.477Z,98367.38
2018-09-22T11:47:16.065Z,98369.25
2018-09-22T11:48:18.668Z,98374.83
2018-09-22T11:49:21.320Z,98374.83
2018-09-22T11:50:23.946Z,98374.03
2018-09-22T11:51:26.570Z,98378.05
2018-09-22T11:52:29.188Z,98389.61
2018-09-22T11:53:31.785Z,98395.52
2018-09-22T11:54:34.393Z,98392.53
2018-09-22T11:55:37.037Z,98387.67
2018-09-22T11:56:39.641Z,98390.35
2018-09-22T11:57:42.289Z,98395.72
2018-09-22T11:58:44.937Z,98391.19
2018-09-22T11:59:47.549Z,98403.28
2018-09-22T12:00:50.200Z,98393.58
2018-09-22T12:01:52.873Z,98400.29
2018-09-22T12:02:55.501Z,98397.61
2018-09-22T12:03:58.156Z,98401.33
2018-09-22T12:05:00.765Z,98404.32
2018-09-22T12:06:03.442Z,98411.03
2018-09-22T12:07:06.074Z,98413.42
2018-09-22T12:08:08.826Z,98406.47
2018-09-22T12:09:11.877Z,98399.45
2018-09-22T12:10:14.521Z,98404.02
2018-09-22T12:11:17.137Z,98407.51
2018-09-22T12:12:19.790Z,98410.20
2018-09-22T12:13:22.520Z,98399.99
2018-09-22T12:14:25.171Z,98404.02
2018-09-22T12:15:27.781Z,98406.70
2018-09-22T12:16:30.478Z,98411.03
2018-09-22T12:17:33.061Z,98412.08